Time;durP1;ratioP1;P1;durP2;ratioP2;P2;SDS_P1;SDS_P2;PMS_P1;PMS_P2;Temp;Humidity;BMP_temperature;BMP_pressure;BME280_temperature;BME280_humidity;BME280_pressure;Samples;Min_cycle;Max_cycle;Signal;HPM_P1;HPM_P2
2022/12/23 00:00:34;;;;;;;20.48;7.72;;;7.90;99.90;;;;;;5128666;27;20035;-67
2022/12/23 00:03:00;;;;;;;15.45;6.43;;;7.90;99.90;;;;;;5129065;28;20043;-67
2022/12/23 00:05:26;;;;;;;16.42;6.72;;;7.90;99.90;;;;;;5127961;28;20046;-66
2022/12/23 00:07:51;;;;;;;18.30;7.63;;;7.90;99.90;;;;;;5101956;27;20527;-67
2022/12/23 00:10:17;;;;;;;28.05;8.20;;;7.90;99.90;;;;;;5111397;27;20047;-66
2022/12/23 00:15:26;;;;;;;23.15;9.68;;;7.90;99.90;;;;;;5126963;27;20055;-66
2022/12/23 00:17:52;;;;;;;20.13;7.93;;;7.90;99.90;;;;;;5099898;28;20390;-67
2022/12/23 00:20:18;;;;;;;19.63;7.38;;;7.90;99.90;;;;;;5101783;27;20087;-69
2022/12/23 00:25:39;;;;;;;17.27;6.57;;;7.90;99.90;;;;;;5104552;27;20130;-69
2022/12/23 00:28:14;;;;;;;18.70;7.60;;;7.90;99.90;;;;;;5140459;27;20047;-69
2022/12/23 00:31:03;;;;;;;19.52;7.28;;;7.90;99.90;;;;;;5119335;27;20399;-69
2022/12/23 00:33:32;;;;;;;17.00;7.20;;;7.90;99.90;;;;;;5134849;27;20520;-69
2022/12/23 00:35:58;;;;;;;17.42;7.18;;;7.90;99.90;;;;;;5107413;27;20050;-70
2022/12/23 00:44:01;;;;;;;15.57;6.53;;;7.90;99.90;;;;;;5102854;27;20040;-69
2022/12/23 00:46:26;;;;;;;20.52;9.43;;;7.90;99.90;;;;;;5138360;27;20128;-70
2022/12/23 00:51:36;;;;;;;18.63;6.57;;;7.90;99.90;;;;;;5111260;27;20583;-69
2022/12/23 00:54:02;;;;;;;17.63;7.35;;;7.90;99.90;;;;;;5108515;27;20150;-69
2022/12/23 00:56:28;;;;;;;16.10;7.13;;;7.90;99.90;;;;;;5110646;27;20046;-69
2022/12/23 00:58:54;;;;;;;20.08;7.07;;;7.90;99.90;;;;;;5099997;27;20051;-70
2022/12/23 01:06:58;;;;;;;18.23;7.05;;;7.90;99.90;;;;;;5053747;28;20040;-69
2022/12/23 01:09:24;;;;;;;19.23;6.93;;;7.90;99.90;;;;;;5143049;27;20028;-69
2022/12/23 01:11:50;;;;;;;14.63;6.03;;;7.90;99.90;;;;;;5089601;27;20050;-70
2022/12/23 01:14:16;;;;;;;21.17;6.80;;;7.90;99.90;;;;;;5126543;27;20039;-69
2022/12/23 01:16:43;;;;;;;21.33;7.43;;;7.90;99.90;;;;;;5094268;27;20120;-69
2022/12/23 01:19:08;;;;;;;17.55;6.88;;;7.90;99.90;;;;;;5095888;27;20031;-69
2022/12/23 01:21:34;;;;;;;19.17;7.05;;;7.90;99.90;;;;;;5138919;27;20072;-69
2022/12/23 01:24:00;;;;;;;17.35;7.28;;;7.90;99.90;;;;;;5122294;27;20035;-69
2022/12/23 01:26:25;;;;;;;19.52;9.18;;;7.90;99.90;;;;;;5109438;27;20080;-69
2022/12/23 01:28:55;;;;;;;17.10;7.20;;;7.90;99.90;;;;;;5093330;27;20417;-69
2022/12/23 01:31:22;;;;;;;18.63;6.90;;;7.90;99.90;;;;;;5106091;27;20034;-69
2022/12/23 01:33:47;;;;;;;19.00;7.38;;;7.90;99.90;;;;;;5094477;27;20031;-69
2022/12/23 01:36:13;;;;;;;15.65;6.25;;;7.90;99.90;;;;;;5110101;27;20392;-69
2022/12/23 01:38:39;;;;;;;17.65;6.93;;;7.90;99.90;;;;;;5111215;27;20084;-69
2022/12/23 01:41:05;;;;;;;17.52;7.13;;;7.90;99.90;;;;;;5136468;27;20035;-70
2022/12/23 01:43:46;;;;;;;14.30;6.85;;;7.90;99.90;;;;;;5106713;27;20035;-69
2022/12/23 01:46:12;;;;;;;16.63;5.82;;;7.90;99.90;;;;;;5127873;27;20041;-69
2022/12/23 01:48:40;;;;;;;18.40;7.00;;;7.90;99.90;;;;;;5139757;27;20036;-69
2022/12/23 01:51:11;;;;;;;17.52;7.65;;;7.90;99.90;;;;;;5113506;27;20046;-69
2022/12/23 01:53:44;;;;;;;19.02;6.68;;;7.90;99.90;;;;;;5128085;27;20518;-69
2022/12/23 01:56:16;;;;;;;14.90;6.03;;;7.90;99.90;;;;;;5108253;27;20396;-69
2022/12/23 01:58:44;;;;;;;19.33;7.15;;;7.90;99.90;;;;;;5109721;27;20039;-69
2022/12/23 02:03:58;;;;;;;14.32;5.10;;;7.90;99.90;;;;;;5109754;27;20076;-69
2022/12/23 02:09:21;;;;;;;17.15;6.78;;;7.90;99.90;;;;;;5126826;27;20584;-69
2022/12/23 02:12:07;;;;;;;17.63;6.57;;;7.90;99.90;;;;;;5106464;27;20136;-69
2022/12/23 02:18:20;;;;;;;16.33;5.75;;;7.80;99.90;;;;;;5123476;27;20523;-69
2022/12/23 02:21:20;;;;;;;18.98;6.60;;;7.90;99.90;;;;;;5142375;27;20045;-69
2022/12/23 02:23:54;;;;;;;22.45;7.05;;;7.80;99.90;;;;;;5110269;27;20058;-69
2022/12/23 02:26:52;;;;;;;18.98;7.18;;;7.80;99.90;;;;;;5108790;27;20035;-69
2022/12/23 02:29:48;;;;;;;16.42;6.85;;;7.80;99.90;;;;;;5124058;27;20039;-69
2022/12/23 02:32:31;;;;;;;12.68;5.28;;;7.80;99.90;;;;;;5105368;27;20078;-69
2022/12/23 02:35:23;;;;;;;17.23;5.80;;;7.80;99.90;;;;;;5109344;27;20043;-69
2022/12/23 02:38:07;;;;;;;15.65;5.40;;;7.90;99.90;;;;;;5106914;27;20504;-69
2022/12/23 02:41:10;;;;;;;18.55;6.20;;;7.80;99.90;;;;;;5107759;27;20050;-69
2022/12/23 02:43:59;;;;;;;19.10;4.78;;;7.80;99.90;;;;;;5118406;27;20035;-69
2022/12/23 02:46:29;;;;;;;24.45;7.63;;;7.80;99.90;;;;;;5138887;27;20118;-69
2022/12/23 02:49:11;;;;;;;20.45;6.38;;;7.80;99.90;;;;;;5098558;27;20046;-69
2022/12/23 02:51:41;;;;;;;17.85;5.72;;;7.90;99.90;;;;;;5104415;27;20035;-69
2022/12/23 02:54:12;;;;;;;14.68;4.82;;;7.80;99.90;;;;;;5109599;27;20027;-69
2022/12/23 02:56:42;;;;;;;13.93;5.50;;;7.80;99.90;;;;;;5091429;27;20039;-69
2022/12/23 02:59:17;;;;;;;13.40;4.78;;;7.80;99.90;;;;;;5110997;27;20049;-69
2022/12/23 03:01:44;;;;;;;16.40;5.63;;;7.90;99.90;;;;;;5108603;27;20035;-69
2022/12/23 03:04:10;;;;;;;13.55;5.35;;;7.80;99.90;;;;;;5107801;27;20035;-69
2022/12/23 03:06:39;;;;;;;11.85;4.82;;;7.90;99.90;;;;;;5106405;28;20031;-69
2022/12/23 03:09:05;;;;;;;13.93;6.32;;;7.80;99.90;;;;;;5111695;27;20031;-69
2022/12/23 03:11:48;;;;;;;14.38;5.40;;;7.80;99.90;;;;;;5105200;28;20043;-69
2022/12/23 03:14:20;;;;;;;14.82;4.93;;;7.80;99.90;;;;;;5106852;28;20059;-69
2022/12/23 03:16:59;;;;;;;15.35;5.95;;;7.80;99.90;;;;;;5107366;28;20064;-69
2022/12/23 03:19:56;;;;;;;10.50;5.05;;;7.80;99.90;;;;;;5141546;27;20031;-69
2022/12/23 03:22:34;;;;;;;15.07;5.80;;;7.80;99.90;;;;;;5125920;27;20492;-69
2022/12/23 03:25:02;;;;;;;17.27;5.32;;;7.80;99.90;;;;;;5090418;28;20035;-69
2022/12/23 03:27:45;;;;;;;14.10;4.82;;;7.80;99.90;;;;;;5094971;28;20039;-69
2022/12/23 03:30:18;;;;;;;12.23;4.43;;;7.80;99.90;;;;;;5109050;27;20054;-69
2022/12/23 03:32:53;;;;;;;18.25;6.05;;;7.80;99.90;;;;;;5106382;27;20023;-69
2022/12/23 03:35:24;;;;;;;16.35;5.65;;;7.90;99.90;;;;;;5105264;28;20092;-69
2022/12/23 03:37:53;;;;;;;12.45;4.25;;;7.80;99.90;;;;;;5144206;27;20051;-69
2022/12/23 03:40:23;;;;;;;16.20;6.15;;;7.80;99.90;;;;;;5102540;28;20506;-69
2022/12/23 03:42:55;;;;;;;15.10;5.05;;;7.80;99.90;;;;;;5111306;27;20040;-69
2022/12/23 03:45:28;;;;;;;11.90;4.22;;;7.80;99.90;;;;;;5106102;28;20066;-69
2022/12/23 03:48:09;;;;;;;15.75;5.65;;;7.80;99.90;;;;;;5110244;28;20453;-69
2022/12/23 03:50:36;;;;;;;11.65;4.72;;;7.80;99.90;;;;;;5104251;28;20078;-69
2022/12/23 03:53:09;;;;;;;14.73;5.55;;;7.90;99.90;;;;;;5112141;27;20035;-69
2022/12/23 03:55:45;;;;;;;14.27;5.15;;;7.80;99.90;;;;;;5091214;27;20069;-69
2022/12/23 03:58:16;;;;;;;;;;;7.80;99.90;;;;;;5132844;27;20115;-69
2022/12/23 04:00:58;;;;;;;17.50;5.50;;;7.80;99.90;;;;;;5131480;27;19923;-69
2022/12/23 04:03:39;;;;;;;13.35;5.13;;;7.80;99.90;;;;;;5095416;27;20046;-70
2022/12/23 04:06:09;;;;;;;13.80;5.05;;;7.90;99.90;;;;;;5124496;27;20043;-69
2022/12/23 04:08:37;;;;;;;13.52;5.90;;;7.80;99.90;;;;;;5112541;27;20039;-69
2022/12/23 04:11:03;;;;;;;17.98;4.55;;;7.90;99.90;;;;;;5111937;27;20138;-70
2022/12/23 04:13:29;;;;;;;15.95;5.57;;;7.80;99.90;;;;;;5109476;27;20075;-69
2022/12/23 04:16:00;;;;;;;12.38;4.05;;;7.80;99.90;;;;;;5111352;27;20080;-69
2022/12/23 04:18:26;;;;;;;12.80;4.68;;;7.80;99.90;;;;;;5125736;27;20027;-69
2022/12/23 04:20:51;;;;;;;10.55;4.93;;;7.80;99.90;;;;;;5111830;27;20035;-69
2022/12/23 04:23:17;;;;;;;16.70;5.55;;;7.80;99.90;;;;;;5139697;27;20047;-69
2022/12/23 04:25:42;;;;;;;15.00;5.13;;;7.80;99.90;;;;;;5111762;27;20051;-69
2022/12/23 04:28:08;;;;;;;10.38;3.47;;;7.80;99.90;;;;;;5091688;27;20104;-69
2022/12/23 04:30:33;;;;;;;11.93;5.05;;;7.80;99.90;;;;;;5103592;27;20493;-70
2022/12/23 04:32:59;;;;;;;10.52;4.75;;;7.80;99.90;;;;;;5137687;27;20092;-69
2022/12/23 04:35:25;;;;;;;13.48;4.38;;;7.80;99.90;;;;;;5132431;27;20027;-69
2022/12/23 04:37:50;;;;;;;13.45;5.15;;;7.80;99.90;;;;;;5136161;27;20031;-69
2022/12/23 04:40:16;;;;;;;17.33;5.88;;;7.80;99.90;;;;;;5125147;27;20444;-69
2022/12/23 04:42:41;;;;;;;11.10;3.97;;;7.80;99.90;;;;;;5130301;27;20074;-69
2022/12/23 04:45:07;;;;;;;10.27;3.50;;;7.80;99.90;;;;;;5141586;27;20073;-69
2022/12/23 04:47:34;;;;;;;11.77;4.63;;;7.80;99.90;;;;;;5110271;27;20502;-69
2022/12/23 04:49:59;;;;;;;14.65;6.10;;;7.80;99.90;;;;;;5112021;27;20404;-69
2022/12/23 04:52:25;;;;;;;11.32;5.35;;;7.80;99.90;;;;;;5144333;27;20031;-70
2022/12/23 04:54:51;;;;;;;12.52;4.30;;;7.80;99.90;;;;;;5106757;27;20035;-69
2022/12/23 04:57:16;;;;;;;17.30;4.97;;;7.80;99.90;;;;;;5103413;27;20046;-69
2022/12/23 04:59:42;;;;;;;12.63;4.03;;;7.80;99.90;;;;;;5110495;27;20074;-69
2022/12/23 05:02:08;;;;;;;10.23;3.60;;;7.80;99.90;;;;;;5129128;27;20039;-69
2022/12/23 05:04:34;;;;;;;12.95;5.07;;;7.80;99.90;;;;;;5112037;27;20401;-69
2022/12/23 05:06:59;;;;;;;13.73;5.72;;;7.80;99.90;;;;;;5108773;27;21709;-69
2022/12/23 05:09:25;;;;;;;15.40;4.97;;;7.70;99.90;;;;;;5108256;27;20055;-70
2022/12/23 05:11:50;;;;;;;9.77;4.00;;;7.70;99.90;;;;;;5094928;28;20048;-69
2022/12/23 05:14:16;;;;;;;11.98;4.78;;;7.70;99.90;;;;;;5087614;28;20047;-69
2022/12/23 05:16:41;;;;;;;11.77;4.03;;;7.70;99.90;;;;;;5084786;28;20032;-69
2022/12/23 05:19:07;;;;;;;17.83;4.30;;;7.70;99.90;;;;;;5082761;28;20407;-69
2022/12/23 05:21:33;;;;;;;8.73;3.58;;;7.70;99.90;;;;;;5085089;28;20032;-69
2022/12/23 05:23:58;;;;;;;10.27;3.28;;;7.70;99.90;;;;;;5089406;28;20036;-69
2022/12/23 05:26:24;;;;;;;11.43;4.97;;;7.70;99.90;;;;;;5082421;28;20032;-69
2022/12/23 05:28:49;;;;;;;11.48;3.05;;;7.70;99.90;;;;;;5087492;28;20115;-69
2022/12/23 05:31:16;;;;;;;12.15;4.78;;;7.70;99.90;;;;;;5082160;28;20499;-69
2022/12/23 05:33:42;;;;;;;12.82;4.70;;;7.70;99.90;;;;;;5090872;28;20047;-69
2022/12/23 05:36:08;;;;;;;12.93;4.07;;;7.70;99.90;;;;;;5086825;28;20044;-69
2022/12/23 05:38:34;;;;;;;12.40;3.75;;;7.70;99.90;;;;;;5088885;28;20116;-69
2022/12/23 05:41:00;;;;;;;13.48;4.50;;;7.70;99.90;;;;;;5085767;28;20115;-69
2022/12/23 05:43:26;;;;;;;9.63;3.08;;;7.70;99.90;;;;;;5087214;28;20040;-69
2022/12/23 05:45:54;;;;;;;11.90;4.45;;;7.70;99.90;;;;;;5081013;28;20412;-70
2022/12/23 05:48:20;;;;;;;15.82;5.55;;;7.70;99.90;;;;;;5089554;28;20036;-69
2022/12/23 05:50:49;;;;;;;11.10;4.15;;;7.70;99.90;;;;;;5068846;28;20028;-70
2022/12/23 05:53:15;;;;;;;16.58;5.25;;;7.60;99.90;;;;;;5084833;28;20051;-69
2022/12/23 05:55:41;;;;;;;14.65;4.25;;;7.70;99.90;;;;;;5084998;28;20050;-69
2022/12/23 05:58:07;;;;;;;14.88;4.75;;;7.70;99.90;;;;;;5083223;28;20551;-69
2022/12/23 06:00:33;;;;;;;15.00;4.20;;;7.70;99.90;;;;;;5087259;28;20031;-69
2022/12/23 06:02:58;;;;;;;12.45;5.38;;;7.70;99.90;;;;;;5083098;28;20071;-69
2022/12/23 06:05:24;;;;;;;11.52;4.60;;;7.60;99.90;;;;;;5082096;28;20043;-69
2022/12/23 06:07:49;;;;;;;11.57;4.28;;;7.60;99.90;;;;;;5085290;28;20050;-69
2022/12/23 06:10:15;;;;;;;11.07;3.67;;;7.60;99.90;;;;;;5086164;28;20055;-69
2022/12/23 06:12:40;;;;;;;10.20;3.63;;;7.50;99.90;;;;;;5079594;28;20121;-70
2022/12/23 06:15:07;;;;;;;8.30;2.78;;;7.60;99.90;;;;;;5083697;28;20494;-69
2022/12/23 06:17:32;;;;;;;14.00;3.20;;;7.60;99.90;;;;;;5075926;28;20584;-70
2022/12/23 06:19:58;;;;;;;8.45;3.65;;;7.50;99.90;;;;;;5079288;28;20036;-69
2022/12/23 06:22:24;;;;;;;9.93;3.08;;;7.50;99.90;;;;;;5093306;28;20048;-70
2022/12/23 06:24:49;;;;;;;10.93;3.92;;;7.50;99.90;;;;;;5110382;27;20035;-69
2022/12/23 06:27:16;;;;;;;7.38;3.40;;;7.50;99.90;;;;;;5090425;28;20511;-69
2022/12/23 06:29:41;;;;;;;11.05;4.68;;;7.50;99.90;;;;;;5079096;28;20043;-69
2022/12/23 06:32:07;;;;;;;7.93;3.25;;;7.50;99.90;;;;;;5076206;28;20393;-69
2022/12/23 06:34:33;;;;;;;5.93;2.22;;;7.50;99.90;;;;;;5062547;28;20229;-69
2022/12/23 06:36:59;;;;;;;7.75;3.17;;;7.50;99.90;;;;;;5079587;28;20401;-69
2022/12/23 06:39:25;;;;;;;6.50;3.60;;;7.50;99.90;;;;;;5078710;28;20424;-69
2022/12/23 06:41:50;;;;;;;6.80;2.50;;;7.50;99.90;;;;;;5098951;28;20055;-69
2022/12/23 06:44:16;;;;;;;7.07;2.53;;;7.50;99.90;;;;;;5083561;28;20044;-69
2022/12/23 06:46:41;;;;;;;8.50;3.00;;;7.50;99.90;;;;;;5073977;28;20117;-69
2022/12/23 06:49:07;;;;;;;5.93;2.40;;;7.50;99.90;;;;;;5073817;28;20068;-69
2022/12/23 06:51:32;;;;;;;13.75;4.18;;;7.40;99.90;;;;;;5094774;28;20095;-69
2022/12/23 06:53:59;;;;;;;9.40;4.13;;;7.40;99.90;;;;;;5094921;28;20036;-70
2022/12/23 06:56:25;;;;;;;6.55;2.83;;;7.40;99.90;;;;;;5075012;28;20040;-70
2022/12/23 06:58:51;;;;;;;8.93;3.67;;;7.40;99.90;;;;;;5083271;28;20031;-70
2022/12/23 07:01:17;;;;;;;4.63;2.17;;;7.40;99.90;;;;;;5076781;28;20496;-70
2022/12/23 07:03:43;;;;;;;6.10;2.50;;;7.40;99.90;;;;;;5094689;27;20024;-70
2022/12/23 07:06:09;;;;;;;4.68;2.10;;;7.40;99.90;;;;;;5077439;28;20032;-70
2022/12/23 07:08:35;;;;;;;6.85;2.67;;;7.30;99.90;;;;;;5078427;28;20044;-70
2022/12/23 07:11:02;;;;;;;8.65;3.60;;;7.40;99.90;;;;;;5111234;27;20041;-70
2022/12/23 07:13:28;;;;;;;7.85;3.15;;;7.40;99.90;;;;;;5104404;27;20506;-70
2022/12/23 07:15:54;;;;;;;5.50;2.20;;;7.30;99.90;;;;;;5105800;28;20035;-70
2022/12/23 07:18:25;;;;;;;7.20;2.50;;;7.40;99.90;;;;;;5110911;27;20028;-70
2022/12/23 07:20:51;;;;;;;5.95;2.58;;;7.30;99.90;;;;;;5108152;28;20035;-70
2022/12/23 07:23:16;;;;;;;5.75;2.50;;;7.30;99.90;;;;;;5123315;27;20042;-70
2022/12/23 07:25:42;;;;;;;7.40;2.58;;;7.30;99.90;;;;;;5107669;28;20047;-70
2022/12/23 07:28:08;;;;;;;12.27;3.50;;;7.30;99.90;;;;;;5107121;27;20130;-70
2022/12/23 07:30:34;;;;;;;8.18;2.70;;;7.30;99.90;;;;;;5094396;27;20132;-70
2022/12/23 07:33:00;;;;;;;5.53;2.47;;;7.30;99.90;;;;;;5109497;27;20035;-70
2022/12/23 07:35:26;;;;;;;3.53;2.13;;;7.30;99.90;;;;;;5141675;27;20080;-70
2022/12/23 07:37:52;;;;;;;6.00;2.50;;;7.30;99.90;;;;;;5141565;27;20443;-70
2022/12/23 07:40:18;;;;;;;6.50;2.63;;;7.30;99.90;;;;;;5108664;27;20031;-70
2022/12/23 07:42:53;;;;;;;6.47;2.25;;;7.30;99.90;;;;;;5111578;27;20047;-70
2022/12/23 07:45:18;;;;;;;5.45;2.40;;;7.30;99.90;;;;;;5110105;27;20522;-70
2022/12/23 07:47:44;;;;;;;7.18;2.08;;;7.30;99.90;;;;;;5107368;27;20043;-70
2022/12/23 07:50:10;;;;;;;6.28;2.28;;;7.30;99.90;;;;;;5127700;27;20046;-70
2022/12/23 07:52:36;;;;;;;7.97;2.20;;;7.30;99.90;;;;;;5111645;27;20118;-70
2022/12/23 07:55:01;;;;;;;5.45;2.80;;;7.30;99.90;;;;;;5107705;27;20034;-70
2022/12/23 07:57:28;;;;;;;7.78;3.38;;;7.30;99.90;;;;;;5103427;27;20593;-70
2022/12/23 07:59:53;;;;;;;7.50;2.75;;;7.30;99.90;;;;;;5107760;27;20066;-70
2022/12/23 08:02:22;;;;;;;7.20;2.67;;;7.30;99.90;;;;;;5102766;27;20579;-70
2022/12/23 08:04:47;;;;;;;6.15;2.83;;;7.30;99.90;;;;;;5124982;27;20500;-70
2022/12/23 08:07:13;;;;;;;6.47;3.20;;;7.30;99.90;;;;;;5099750;27;20036;-70
2022/12/23 08:09:39;;;;;;;5.25;2.13;;;7.30;99.90;;;;;;5123243;27;20046;-70
2022/12/23 08:12:04;;;;;;;6.20;2.15;;;7.40;99.90;;;;;;5098567;27;20051;-69
2022/12/23 08:14:30;;;;;;;5.88;2.42;;;7.40;99.90;;;;;;5101755;27;20079;-70
2022/12/23 08:16:55;;;;;;;6.32;2.35;;;7.40;99.90;;;;;;5113201;27;20035;-70
2022/12/23 08:19:21;;;;;;;6.45;2.67;;;7.40;99.90;;;;;;5102180;27;20061;-70
2022/12/23 08:21:47;;;;;;;3.58;1.98;;;7.40;99.90;;;;;;5121791;27;20551;-70
2022/12/23 08:24:12;;;;;;;8.82;2.65;;;7.40;99.90;;;;;;5117537;27;20039;-70
2022/12/23 08:26:38;;;;;;;7.32;3.00;;;7.40;99.90;;;;;;5101188;27;20086;-70
2022/12/23 08:29:03;;;;;;;6.88;2.72;;;7.40;99.90;;;;;;5125756;27;20425;-70
2022/12/23 08:31:33;;;;;;;4.78;2.47;;;7.40;99.90;;;;;;5102826;27;20130;-70
2022/12/23 08:33:59;;;;;;;6.88;2.85;;;7.40;99.90;;;;;;5124434;27;20035;-70
2022/12/23 08:36:29;;;;;;;6.32;2.47;;;7.40;99.90;;;;;;5135626;27;20433;-70
2022/12/23 08:38:56;;;;;;;4.32;2.25;;;7.50;99.90;;;;;;5120633;27;20344;-70
2022/12/23 08:41:25;;;;;;;7.32;2.88;;;7.50;99.90;;;;;;5107189;27;20082;-70
2022/12/23 08:43:51;;;;;;;9.90;3.40;;;7.50;99.90;;;;;;5109050;27;20077;-70
2022/12/23 08:46:16;;;;;;;5.47;1.88;;;7.50;99.90;;;;;;5105447;27;20491;-70
2022/12/23 08:48:42;;;;;;;6.75;2.58;;;7.40;99.90;;;;;;5108270;27;20114;-70
2022/12/23 08:51:12;;;;;;;7.95;3.08;;;7.50;99.90;;;;;;5088911;27;20057;-70
2022/12/23 08:53:39;;;;;;;6.32;1.95;;;7.50;99.90;;;;;;5106435;27;20054;-70
2022/12/23 08:56:08;;;;;;;4.75;2.33;;;7.40;99.90;;;;;;5107751;27;20496;-70
2022/12/23 08:58:39;;;;;;;5.10;2.40;;;7.50;99.90;;;;;;5108618;27;20552;-70
2022/12/23 09:01:07;;;;;;;7.32;2.13;;;7.50;99.90;;;;;;5118303;27;20118;-70
2022/12/23 09:03:35;;;;;;;6.40;2.33;;;7.50;99.90;;;;;;5101921;27;20231;-70
2022/12/23 09:06:09;;;;;;;5.88;2.45;;;7.50;99.90;;;;;;5100277;27;20050;-70
2022/12/23 09:08:35;;;;;;;7.25;2.88;;;7.50;99.90;;;;;;5101956;27;20558;-70
2022/12/23 09:11:01;;;;;;;8.68;4.60;;;7.50;99.90;;;;;;5105911;27;20047;-70
2022/12/23 09:13:27;;;;;;;7.05;2.58;;;7.50;99.90;;;;;;5105967;27;20448;-70
2022/12/23 09:15:52;;;;;;;5.57;2.35;;;7.60;99.90;;;;;;5106995;27;20043;-70
2022/12/23 09:18:18;;;;;;;6.78;2.80;;;7.50;99.90;;;;;;5129432;27;20032;-70
2022/12/23 09:20:44;;;;;;;6.45;2.03;;;7.60;99.90;;;;;;5086317;27;20039;-70
2022/12/23 09:23:10;;;;;;;7.70;3.22;;;7.60;99.90;;;;;;5103764;27;20118;-70
2022/12/23 09:25:36;;;;;;;6.00;2.67;;;7.60;99.90;;;;;;5086598;27;21426;-70
2022/12/23 09:28:02;;;;;;;4.45;1.88;;;7.60;99.90;;;;;;5104325;27;20488;-70
2022/12/23 09:30:28;;;;;;;7.65;3.03;;;7.60;99.90;;;;;;5108651;27;20670;-70
2022/12/23 09:32:54;;;;;;;6.75;2.60;;;7.60;99.90;;;;;;5109869;27;20035;-70
2022/12/23 09:35:20;;;;;;;10.65;4.85;;;7.60;99.90;;;;;;5104890;27;20038;-70
2022/12/23 09:37:45;;;;;;;6.13;2.70;;;7.60;99.90;;;;;;5102759;27;20480;-71
2022/12/23 09:40:13;;;;;;;6.82;2.97;;;7.70;99.90;;;;;;5091681;27;20028;-70
2022/12/23 09:42:50;;;;;;;3.50;2.03;;;7.70;99.90;;;;;;5087938;27;20042;-70
2022/12/23 09:45:46;;;;;;;6.65;2.13;;;7.70;99.90;;;;;;5101256;27;20047;-70
2022/12/23 09:48:19;;;;;;;7.10;2.88;;;7.70;99.90;;;;;;5136053;27;20047;-70
2022/12/23 09:50:45;;;;;;;4.63;2.33;;;7.70;99.90;;;;;;5105740;27;20041;-70
2022/12/23 09:53:18;;;;;;;4.70;2.20;;;7.70;99.90;;;;;;5126786;27;20054;-70
2022/12/23 09:55:52;;;;;;;8.73;3.60;;;7.70;99.90;;;;;;5111732;27;20400;-70
2022/12/23 09:58:50;;;;;;;7.20;2.60;;;7.70;99.90;;;;;;5131030;27;20074;-70
2022/12/23 10:01:47;;;;;;;7.25;2.40;;;7.70;99.90;;;;;;5123099;27;20038;-70
2022/12/23 10:04:21;;;;;;;5.53;2.70;;;7.80;99.90;;;;;;5121117;27;20046;-75
2022/12/23 10:07:11;;;;;;;6.95;2.72;;;7.80;99.90;;;;;;5107027;27;20035;-70
2022/12/23 10:09:41;;;;;;;9.30;2.85;;;7.80;99.90;;;;;;5088180;27;20225;-70
2022/12/23 10:12:33;;;;;;;5.55;2.58;;;7.80;99.90;;;;;;5129711;27;20059;-71
2022/12/23 10:15:02;;;;;;;7.15;2.53;;;7.80;99.90;;;;;;5134538;27;20039;-71
2022/12/23 10:17:33;;;;;;;4.38;2.25;;;7.80;99.90;;;;;;5094155;27;20032;-78
2022/12/23 10:20:01;;;;;;;4.40;1.95;;;7.80;99.90;;;;;;5083534;27;20399;-74
2022/12/23 10:22:42;;;;;;;6.18;2.47;;;7.80;99.90;;;;;;5101252;27;20065;-74
2022/12/23 10:25:31;;;;;;;8.02;3.33;;;7.80;99.90;;;;;;5085528;27;20880;-72
2022/12/23 10:27:56;;;;;;;6.72;2.30;;;7.80;99.90;;;;;;5114299;27;20043;-69
2022/12/23 10:30:23;;;;;;;6.13;3.08;;;7.80;99.90;;;;;;5116841;27;20415;-70
2022/12/23 10:32:58;;;;;;;6.35;2.92;;;7.90;99.90;;;;;;5100818;27;20087;-69
2022/12/23 10:35:54;;;;;;;6.50;2.15;;;7.80;99.90;;;;;;5103355;27;20049;-69
2022/12/23 10:38:41;;;;;;;6.47;2.63;;;7.90;99.90;;;;;;5102344;27;20038;-69
2022/12/23 10:41:37;;;;;;;3.47;1.40;;;7.90;99.90;;;;;;5115459;27;20043;-70
2022/12/23 10:44:17;;;;;;;5.43;2.30;;;7.90;99.90;;;;;;5098679;27;20510;-69
2022/12/23 10:46:59;;;;;;;3.58;1.67;;;7.90;99.90;;;;;;5133315;27;20301;-70
2022/12/23 10:49:42;;;;;;;8.13;4.00;;;7.90;99.90;;;;;;5101543;27;20038;-70
2022/12/23 10:52:14;;;;;;;6.45;2.58;;;7.90;99.90;;;;;;5101270;27;20058;-70
2022/12/23 10:54:42;;;;;;;9.02;2.83;;;8.00;99.90;;;;;;5135787;27;20031;-70
2022/12/23 10:57:08;;;;;;;3.90;1.98;;;8.00;99.90;;;;;;5096178;27;20039;-70
2022/12/23 10:59:35;;;;;;;5.85;2.63;;;7.90;99.90;;;;;;5131898;27;20035;-70
2022/12/23 11:02:13;;;;;;;5.95;3.03;;;7.90;99.90;;;;;;5101568;27;20038;-70
2022/12/23 11:04:41;;;;;;;5.78;2.65;;;8.00;99.90;;;;;;5115674;27;20436;-70
2022/12/23 11:07:10;;;;;;;5.72;2.60;;;8.00;99.90;;;;;;5113844;27;20040;-70
2022/12/23 11:09:51;;;;;;;5.50;2.85;;;8.00;99.90;;;;;;5095608;27;20062;-70
2022/12/23 11:12:22;;;;;;;6.78;3.55;;;8.00;99.90;;;;;;5084579;27;20043;-69
2022/12/23 11:14:56;;;;;;;8.85;4.00;;;8.10;99.90;;;;;;5101327;27;20393;-70
2022/12/23 11:17:33;;;;;;;5.32;2.60;;;8.00;99.90;;;;;;5100694;27;20071;-69
2022/12/23 11:20:14;;;;;;;4.78;1.83;;;8.10;99.90;;;;;;5089156;27;20035;-70
2022/12/23 11:22:46;;;;;;;5.22;2.42;;;8.00;99.90;;;;;;5101255;27;20054;-69
2022/12/23 11:25:24;;;;;;;6.85;2.38;;;8.10;99.90;;;;;;5133473;27;20043;-70
2022/12/23 11:27:55;;;;;;;7.45;2.25;;;8.10;99.90;;;;;;5093088;27;20154;-72
2022/12/23 11:30:28;;;;;;;4.65;2.50;;;8.10;99.90;;;;;;5103078;27;20066;-71
2022/12/23 11:32:53;;;;;;;6.20;2.50;;;8.10;99.90;;;;;;5101513;27;20074;-71
2022/12/23 11:35:34;;;;;;;7.13;3.08;;;8.10;99.90;;;;;;5121771;27;20063;-71
2022/12/23 11:38:01;;;;;;;4.88;2.25;;;8.10;99.90;;;;;;5083169;27;20377;-70
2022/12/23 11:40:30;;;;;;;5.60;2.13;;;8.10;99.90;;;;;;5111001;27;20031;-70
2022/12/23 11:43:03;;;;;;;5.22;2.38;;;8.10;99.90;;;;;;5098498;27;20069;-70
2022/12/23 11:45:33;;;;;;;8.52;2.67;;;8.10;99.90;;;;;;5101985;28;20471;-70
2022/12/23 11:47:59;;;;;;;6.38;2.50;;;8.10;99.90;;;;;;5094984;27;20042;-70
2022/12/23 11:50:36;;;;;;;8.40;2.83;;;8.10;99.90;;;;;;5099373;27;20437;-70
2022/12/23 11:53:22;;;;;;;5.88;2.08;;;8.10;99.90;;;;;;5101842;27;20050;-70
2022/12/23 11:55:59;;;;;;;4.53;2.00;;;8.10;99.90;;;;;;5101750;27;20032;-70
2022/12/23 11:58:27;;;;;;;8.93;3.05;;;8.10;99.90;;;;;;5104097;27;20484;-70
2022/12/23 12:00:59;;;;;;;5.65;2.67;;;8.10;99.90;;;;;;5084841;27;20054;-70
2022/12/23 12:03:32;;;;;;;8.38;2.47;;;8.10;99.90;;;;;;5106316;27;20043;-71
2022/12/23 12:06:02;;;;;;;8.52;2.95;;;8.10;99.90;;;;;;5085553;28;20304;-70
2022/12/23 12:08:32;;;;;;;6.72;2.58;;;8.10;99.90;;;;;;5124734;27;20073;-70
2022/12/23 12:11:06;;;;;;;12.13;4.65;;;8.10;99.90;;;;;;5100438;27;20046;-70
2022/12/23 12:13:40;;;;;;;9.50;3.75;;;8.10;99.90;;;;;;5104083;27;20485;-70
2022/12/23 12:16:27;;;;;;;6.07;2.42;;;8.20;99.90;;;;;;5101425;27;20318;-70
2022/12/23 12:18:59;;;;;;;6.35;2.22;;;8.20;99.90;;;;;;5108694;27;20408;-70
2022/12/23 12:21:29;;;;;;;3.90;2.17;;;8.20;99.90;;;;;;5106977;27;20388;-70
2022/12/23 12:24:11;;;;;;;6.50;2.58;;;8.20;99.90;;;;;;5107268;27;20035;-70
2022/12/23 12:26:37;;;;;;;7.15;2.70;;;8.20;99.90;;;;;;5108662;27;20106;-70
2022/12/23 12:29:24;;;;;;;7.50;2.33;;;8.20;99.90;;;;;;5104599;27;20171;-70
2022/12/23 12:31:53;;;;;;;7.78;2.65;;;8.20;99.90;;;;;;5104062;27;20484;-70
2022/12/23 12:35:02;;;;;;;7.57;2.50;;;8.20;99.90;;;;;;5106971;27;20059;-70
2022/12/23 12:37:45;;;;;;;5.28;1.98;;;8.20;99.90;;;;;;5085233;27;20401;-71
2022/12/23 12:40:16;;;;;;;5.15;2.30;;;8.20;99.90;;;;;;5106304;27;20079;-70
2022/12/23 12:42:49;;;;;;;8.07;2.75;;;8.20;99.90;;;;;;5138868;27;20159;-70
2022/12/23 12:45:26;;;;;;;7.65;2.28;;;8.20;99.90;;;;;;5108497;27;20091;-70
2022/12/23 12:48:05;;;;;;;8.80;2.50;;;8.20;99.90;;;;;;5105941;27;20127;-70
2022/12/23 12:50:40;;;;;;;8.02;4.15;;;8.20;99.90;;;;;;5108154;27;20042;-70
2022/12/23 12:53:14;;;;;;;4.17;2.40;;;8.20;99.90;;;;;;5089212;27;20073;-70
2022/12/23 12:55:45;;;;;;;7.13;3.30;;;8.20;99.90;;;;;;5125088;27;20116;-70
2022/12/23 12:58:21;;;;;;;5.55;2.53;;;8.20;99.90;;;;;;5122415;27;20053;-70
2022/12/23 13:01:12;;;;;;;7.25;3.03;;;8.20;99.90;;;;;;5103671;27;20222;-70
2022/12/23 13:03:40;;;;;;;6.50;2.90;;;8.20;99.90;;;;;;5144319;27;20051;-70
2022/12/23 13:06:19;;;;;;;8.55;3.03;;;8.20;99.90;;;;;;5112439;27;20298;-70
2022/12/23 13:08:58;;;;;;;6.97;2.60;;;8.30;99.90;;;;;;5108844;27;20042;-70
2022/12/23 13:11:43;;;;;;;6.70;3.50;;;8.20;99.90;;;;;;5104977;27;20125;-70
2022/12/23 13:14:54;;;;;;;10.60;3.50;;;8.20;99.90;;;;;;5103023;27;20092;-70
2022/12/23 13:17:23;;;;;;;6.88;2.47;;;8.20;99.90;;;;;;5062056;28;20058;-70
2022/12/23 13:19:54;;;;;;;10.60;3.38;;;8.20;99.90;;;;;;5092362;28;20517;-70
2022/12/23 13:22:32;;;;;;;6.95;2.42;;;8.20;99.90;;;;;;5093351;28;20523;-70
2022/12/23 13:25:20;;;;;;;7.80;3.20;;;8.20;99.90;;;;;;5093183;28;20084;-70
2022/12/23 13:28:05;;;;;;;6.68;2.88;;;8.20;99.90;;;;;;5092519;27;20246;-70
2022/12/23 13:30:46;;;;;;;6.30;2.60;;;8.20;99.90;;;;;;5127487;27;20047;-70
2022/12/23 13:33:28;;;;;;;3.88;2.22;;;8.10;99.90;;;;;;5113290;27;20039;-69
2022/12/23 13:36:13;;;;;;;8.50;3.05;;;8.10;99.90;;;;;;5113514;27;20035;-70
2022/12/23 13:39:25;;;;;;;9.18;3.00;;;8.10;99.90;;;;;;5130668;27;20070;-70
2022/12/23 13:41:53;;;;;;;6.30;2.55;;;8.10;99.90;;;;;;5081210;27;20046;-70